createdAt,value
2019-05-02T00:01:08.572Z,85.87
2019-05-02T00:03:41.037Z,79.40
2019-05-02T00:06:12.524Z,74.67
2019-05-02T00:08:43.056Z,83.17
2019-05-02T00:11:13.950Z,84.17
2019-05-02T00:13:44.134Z,80.47
2019-05-02T00:16:15.438Z,76.50
2019-05-02T00:18:45.945Z,73.30
2019-05-02T00:21:16.787Z,80.07
2019-05-02T00:23:47.564Z,72.63
2019-05-02T00:26:17.694Z,75.67
2019-05-02T00:28:49.852Z,83.17
2019-05-02T00:31:21.716Z,82.20
2019-05-02T00:33:52.995Z,89.87
2019-05-02T00:36:23.244Z,77.33
2019-05-02T00:38:53.847Z,83.17
2019-05-02T00:41:24.038Z,93.77
2019-05-02T00:43:54.251Z,87.80
2019-05-02T00:46:24.797Z,79.67
2019-05-02T00:48:59.663Z,86.47
2019-05-02T00:51:30.344Z,87.40
2019-05-02T00:54:00.533Z,82.77
2019-05-02T00:56:31.089Z,90.50
2019-05-02T00:59:02.547Z,96.07
2019-05-02T01:01:55.200Z,74.87
2019-05-02T01:04:29.621Z,83.03
2019-05-02T01:06:59.947Z,92.90
2019-05-02T01:09:30.179Z,84.00
2019-05-02T01:12:03.046Z,92.47
2019-05-02T01:14:33.273Z,85.53
2019-05-02T01:17:03.617Z,91.77
2019-05-02T01:19:34.541Z,86.93
2019-05-02T01:22:04.995Z,98.37
2019-05-02T01:24:39.882Z,92.33
2019-05-02T01:27:16.626Z,87.83
2019-05-02T01:30:01.402Z,83.33
2019-05-02T01:32:50.503Z,85.17
2019-05-02T01:35:31.573Z,82.53
2019-05-02T01:38:31.138Z,82.27
2019-05-02T01:40:57.895Z,76.97
2019-05-02T01:43:30.374Z,80.23
2019-05-02T01:46:00.695Z,91.67
2019-05-02T01:48:30.941Z,89.83
2019-05-02T01:51:04.327Z,92.93
2019-05-02T01:53:34.403Z,92.80
2019-05-02T01:56:05.360Z,93.93
2019-05-02T01:58:35.550Z,100.13
2019-05-02T02:01:06.339Z,92.33
2019-05-02T02:03:40.424Z,93.43
2019-05-02T02:06:10.154Z,89.70
2019-05-02T02:08:41.879Z,95.30
2019-05-02T02:11:12.192Z,92.07
2019-05-02T02:13:42.713Z,93.73
2019-05-02T02:16:12.930Z,91.83
2019-05-02T02:18:49.184Z,92.03
2019-05-02T02:21:43.024Z,90.67
2019-05-02T02:24:25.152Z,88.97
2019-05-02T02:26:53.635Z,97.70
2019-05-02T02:29:23.808Z,88.83
2019-05-02T02:31:54.000Z,90.47
2019-05-02T02:34:29.063Z,98.90
2019-05-02T02:36:56.087Z,98.33
2019-05-02T02:39:26.734Z,100.47
2019-05-02T02:41:57.005Z,90.57
2019-05-02T02:44:52.250Z,97.20
2019-05-02T02:47:22.480Z,89.80
2019-05-02T02:49:55.960Z,95.27
2019-05-02T02:52:24.933Z,81.67
2019-05-02T02:54:55.117Z,93.33
2019-05-02T02:57:28.173Z,91.50
2019-05-02T03:00:06.377Z,93.83
2019-05-02T03:02:29.183Z,86.23
2019-05-02T03:04:59.429Z,87.17
2019-05-02T03:07:30.927Z,92.07
2019-05-02T03:10:06.293Z,91.53
2019-05-02T03:12:55.081Z,90.53
2019-05-02T03:15:28.390Z,86.60
2019-05-02T03:18:00.304Z,87.77
2019-05-02T03:20:39.936Z,93.80
2019-05-02T03:23:03.229Z,89.80
2019-05-02T03:25:50.045Z,91.30
2019-05-02T03:28:17.920Z,90.33
2019-05-02T03:30:38.213Z,92.43
2019-05-02T03:33:11.344Z,89.47
2019-05-02T03:35:48.135Z,91.90
2019-05-02T03:38:12.451Z,100.10
2019-05-02T03:40:42.928Z,102.57
2019-05-02T03:43:18.910Z,96.63
2019-05-02T03:45:46.422Z,100.40
2019-05-02T03:48:18.127Z,103.77
2019-05-02T03:50:49.312Z,99.97
2019-05-02T03:53:25.206Z,90.87
2019-05-02T03:55:54.617Z,99.13
2019-05-02T03:58:25.216Z,106.97
2019-05-02T04:01:01.498Z,112.07
2019-05-02T04:03:34.292Z,91.30
2019-05-02T04:06:01.192Z,92.60
2019-05-02T04:08:33.100Z,90.60
2019-05-02T04:11:22.806Z,103.60
2019-05-02T04:13:54.618Z,95.33
2019-05-02T04:16:29.580Z,100.73
2019-05-02T04:19:04.809Z,93.93
2019-05-02T04:21:38.540Z,104.20
2019-05-02T04:24:13.780Z,101.60
2019-05-02T04:26:52.086Z,107.30
2019-05-02T04:29:16.670Z,114.57
2019-05-02T04:31:47.175Z,108.77
2019-05-02T04:34:17.883Z,109.83
2019-05-02T04:37:00.247Z,105.13
2019-05-02T04:39:22.017Z,101.37
2019-05-02T04:41:52.394Z,115.00
2019-05-02T04:44:29.867Z,105.47
2019-05-02T04:46:59.870Z,112.53
2019-05-02T04:49:29.649Z,100.23
2019-05-02T04:52:06.100Z,100.00
2019-05-02T04:54:32.526Z,104.53
2019-05-02T04:57:02.826Z,113.50
2019-05-02T04:59:34.579Z,95.40
2019-05-02T05:02:04.771Z,103.83
2019-05-02T05:04:41.977Z,113.17
2019-05-02T05:07:09.312Z,113.83
2019-05-02T05:09:40.148Z,106.07
2019-05-02T05:12:10.701Z,104.70
2019-05-02T05:14:43.243Z,104.43
2019-05-02T05:17:13.090Z,112.93
2019-05-02T05:19:43.319Z,106.83
2019-05-02T05:22:13.488Z,108.80
2019-05-02T05:24:52.457Z,105.07
2019-05-02T05:27:23.029Z,114.93
2019-05-02T05:29:58.604Z,124.27
2019-05-02T05:32:25.442Z,117.73
2019-05-02T05:34:57.942Z,110.17
2019-05-02T05:37:29.552Z,115.03
2019-05-02T05:40:00.044Z,116.77
2019-05-02T05:42:33.372Z,114.97
2019-05-02T05:45:03.943Z,114.67
2019-05-02T05:47:34.420Z,114.00
2019-05-02T05:50:05.155Z,111.70
2019-05-02T05:52:38.791Z,116.23
2019-05-02T05:55:07.962Z,100.63
2019-05-02T05:57:38.550Z,113.67
2019-05-02T06:00:15.976Z,110.67
2019-05-02T06:02:52.782Z,103.47
2019-05-02T06:05:13.469Z,115.60
2019-05-02T06:07:44.923Z,109.80
2019-05-02T06:10:15.302Z,98.23
2019-05-02T06:12:45.580Z,115.47
2019-05-02T06:15:15.827Z,102.67
2019-05-02T06:17:45.997Z,111.17
2019-05-02T06:20:16.211Z,114.03
2019-05-02T06:22:46.385Z,108.13
2019-05-02T06:25:17.000Z,108.63
2019-05-02T06:27:47.278Z,109.30
2019-05-02T06:30:17.861Z,101.50
2019-05-02T06:32:49.984Z,103.20
2019-05-02T06:35:21.149Z,97.43
2019-05-02T06:37:52.021Z,92.70
2019-05-02T06:40:23.494Z,99.73
2019-05-02T06:42:54.239Z,105.17
2019-05-02T06:45:24.511Z,104.87
2019-05-02T06:47:54.767Z,93.03
2019-05-02T06:50:25.357Z,98.63
2019-05-02T06:52:55.563Z,98.67
2019-05-02T06:55:28.120Z,94.13
2019-05-02T06:58:02.783Z,112.23
2019-05-02T07:00:39.556Z,107.10
2019-05-02T07:03:04.899Z,109.87
2019-05-02T07:05:35.404Z,114.10
2019-05-02T07:08:11.436Z,104.33
2019-05-02T07:10:44.894Z,100.47
2019-05-02T07:13:11.061Z,105.13
2019-05-02T07:16:10.568Z,105.23
2019-05-02T07:18:47.417Z,106.83
2019-05-02T07:21:23.154Z,102.20
2019-05-02T07:23:53.835Z,101.17
2019-05-02T07:26:23.368Z,95.93
2019-05-02T07:28:53.838Z,96.13
2019-05-02T07:31:24.436Z,99.80
2019-05-02T07:33:54.910Z,95.90
2019-05-02T07:36:25.108Z,104.77
2019-05-02T07:38:57.484Z,105.30
2019-05-02T07:41:29.060Z,98.27
2019-05-02T07:43:59.516Z,96.50
2019-05-02T07:46:29.731Z,97.60
2019-05-02T07:48:59.941Z,95.77
2019-05-02T07:51:30.169Z,98.00
2019-05-02T07:54:00.343Z,97.27
2019-05-02T07:56:30.480Z,99.23
2019-05-02T07:59:00.649Z,95.30
2019-05-02T08:01:30.921Z,102.73
2019-05-02T08:04:04.475Z,108.27
2019-05-02T08:06:35.511Z,109.97
2019-05-02T08:09:09.162Z,101.17
2019-05-02T08:11:41.071Z,100.10
2019-05-02T08:14:11.274Z,106.80
2019-05-02T08:16:41.767Z,101.77
2019-05-02T08:19:11.942Z,96.10
2019-05-02T08:21:42.145Z,100.63
2019-05-02T08:24:12.382Z,84.67
2019-05-02T08:27:04.324Z,97.53
2019-05-02T08:29:35.630Z,89.53
2019-05-02T08:32:06.105Z,84.00
2019-05-02T08:34:36.348Z,97.53
2019-05-02T08:37:06.551Z,86.17
2019-05-02T08:39:36.741Z,90.10
2019-05-02T08:42:09.955Z,98.27
2019-05-02T08:44:50.763Z,100.30
2019-05-02T08:47:19.050Z,101.23
2019-05-02T08:49:44.783Z,91.47
2019-05-02T08:52:16.671Z,95.60
2019-05-02T08:54:46.936Z,97.03
2019-05-02T08:57:17.214Z,98.73
2019-05-02T08:59:47.762Z,110.17
2019-05-02T09:02:21.081Z,100.90
2019-05-02T09:04:58.307Z,100.87
2019-05-02T09:07:22.283Z,107.63
2019-05-02T09:09:55.405Z,105.73
2019-05-02T09:12:25.844Z,101.87
2019-05-02T09:14:56.112Z,96.33
2019-05-02T09:17:36.072Z,107.83
2019-05-02T09:20:02.297Z,109.47
2019-05-02T09:22:30.262Z,107.17
2019-05-02T09:25:02.267Z,114.13
2019-05-02T09:27:33.546Z,114.50
2019-05-02T09:30:04.347Z,108.33
2019-05-02T09:32:37.151Z,112.60
2019-05-02T09:35:07.579Z,121.53
2019-05-02T09:37:37.870Z,127.77
2019-05-02T09:40:12.617Z,120.03
2019-05-02T09:42:43.036Z,121.77
2019-05-02T09:45:18.851Z,115.93
2019-05-02T09:48:01.351Z,112.80
2019-05-02T09:50:29.997Z,117.67
2019-05-02T09:52:53.503Z,118.20
2019-05-02T09:55:23.771Z,121.27
2019-05-02T09:57:54.125Z,116.60
2019-05-02T10:00:36.040Z,116.50
2019-05-02T10:03:04.215Z,117.17
2019-05-02T10:05:34.705Z,122.73
2019-05-02T10:08:06.865Z,117.00
2019-05-02T10:10:41.570Z,115.57
2019-05-02T10:13:09.479Z,121.13
2019-05-02T10:15:41.937Z,115.17
2019-05-02T10:18:14.408Z,115.47
2019-05-02T10:20:43.939Z,110.60
2019-05-02T10:23:19.685Z,112.20
2019-05-02T10:25:47.081Z,108.23
2019-05-02T10:28:17.786Z,107.17
2019-05-02T10:30:52.552Z,108.97
2019-05-02T10:33:19.892Z,104.13
2019-05-02T10:35:52.440Z,110.60
2019-05-02T10:38:22.865Z,106.67
2019-05-02T10:41:01.327Z,102.70
2019-05-02T10:43:26.593Z,113.33
2019-05-02T10:46:02.127Z,111.53
2019-05-02T10:48:34.140Z,118.40
2019-05-02T10:51:25.906Z,116.30
2019-05-02T10:53:56.412Z,103.87
2019-05-02T10:56:26.843Z,98.87
2019-05-02T10:58:57.148Z,92.77
2019-05-02T11:01:30.062Z,100.40
2019-05-02T11:04:02.489Z,107.00
2019-05-02T11:06:37.265Z,105.40
2019-05-02T11:09:08.671Z,100.67
2019-05-02T11:11:39.307Z,97.23
2019-05-02T11:14:15.999Z,101.67
2019-05-02T11:16:52.594Z,89.37
2019-05-02T11:19:29.163Z,98.37
2019-05-02T11:22:00.212Z,81.17
2019-05-02T11:24:31.655Z,91.73
2019-05-02T11:27:02.246Z,93.57
2019-05-02T11:29:33.637Z,81.87
2019-05-02T11:32:04.322Z,79.23
2019-05-02T11:34:34.704Z,70.67
2019-05-02T11:37:04.981Z,58.17
2019-05-02T11:39:44.335Z,52.27
2019-05-02T11:42:07.241Z,55.10
2019-05-02T11:44:37.562Z,46.90
2019-05-02T11:47:07.714Z,45.67
2019-05-02T11:49:37.938Z,44.60
2019-05-02T11:52:08.484Z,42.33
2019-05-02T11:54:39.288Z,41.10
2019-05-02T11:57:11.661Z,41.67
2019-05-02T11:59:42.519Z,37.53
2019-05-02T12:02:49.060Z,31.87
2019-05-02T12:05:22.206Z,25.63
2019-05-02T12:07:52.709Z,25.00
2019-05-02T12:10:23.669Z,20.23
2019-05-02T12:12:53.910Z,21.63
2019-05-02T12:15:24.146Z,20.83
2019-05-02T12:17:55.461Z,20.47
2019-05-02T12:20:28.585Z,24.27
2019-05-02T12:22:58.216Z,20.90
2019-05-02T12:25:28.774Z,21.27
2019-05-02T12:27:59.318Z,24.60
2019-05-02T12:30:36.047Z,23.43
2019-05-02T12:33:02.505Z,21.13
2019-05-02T12:35:32.805Z,22.43
2019-05-02T12:38:03.028Z,25.87
2019-05-02T12:40:33.590Z,23.53
2019-05-02T12:43:04.045Z,22.37
2019-05-02T12:45:34.252Z,22.07
2019-05-02T12:48:04.724Z,24.23
2019-05-02T12:50:35.003Z,20.33
2019-05-02T12:53:05.337Z,22.97
2019-05-02T12:55:35.517Z,27.03
2019-05-02T12:58:07.288Z,28.67
2019-05-02T13:00:37.524Z,24.17
2019-05-02T13:03:31.604Z,25.93
2019-05-02T13:06:03.765Z,28.20
2019-05-02T13:08:37.031Z,27.30
2019-05-02T13:11:23.874Z,27.70
2019-05-02T13:13:54.062Z,28.27
2019-05-02T13:16:24.562Z,26.73
2019-05-02T13:18:57.182Z,24.50
2019-05-02T13:21:40.129Z,29.20
2019-05-02T13:24:16.348Z,27.63
2019-05-02T13:26:45.250Z,29.73
2019-05-02T13:29:15.911Z,26.90
2019-05-02T13:31:55.458Z,31.80
2019-05-02T13:34:34.193Z,30.30
2019-05-02T13:37:07.002Z,29.20
2019-05-02T13:39:52.935Z,31.43
2019-05-02T13:42:23.285Z,26.73
2019-05-02T13:45:02.422Z,29.43
2019-05-02T13:47:34.008Z,30.27
2019-05-02T13:50:05.869Z,32.20
2019-05-02T13:52:36.097Z,32.40
2019-05-02T13:55:09.529Z,37.97
2019-05-02T13:57:42.997Z,33.70
2019-05-02T14:00:14.575Z,29.50
2019-05-02T14:02:45.058Z,28.17
2019-05-02T14:05:16.695Z,30.70
2019-05-02T14:07:54.002Z,32.37
2019-05-02T14:10:33.594Z,43.03
2019-05-02T14:13:00.322Z,39.17
2019-05-02T14:15:37.537Z,46.30
2019-05-02T14:18:08.169Z,44.57
2019-05-02T14:20:38.452Z,44.43
2019-05-02T14:23:09.196Z,47.87
2019-05-02T14:25:39.766Z,49.33
2019-05-02T14:28:09.983Z,44.57
2019-05-02T14:30:45.963Z,54.33
2019-05-02T14:33:17.477Z,53.73
2019-05-02T14:35:47.725Z,49.27
2019-05-02T14:38:17.969Z,49.33
2019-05-02T14:41:05.733Z,49.73
2019-05-02T14:43:53.728Z,51.43
2019-05-02T14:46:33.235Z,48.00
2019-05-02T14:48:59.987Z,52.83
2019-05-02T14:51:32.061Z,52.43
2019-05-02T14:54:06.529Z,48.47
2019-05-02T14:56:52.154Z,52.10
2019-05-02T14:59:24.637Z,47.73
2019-05-02T15:02:05.802Z,47.97
2019-05-02T15:04:31.959Z,45.80
2019-05-02T15:07:02.054Z,47.50
2019-05-02T15:09:35.706Z,45.07
2019-05-02T15:12:14.125Z,45.93
2019-05-02T15:14:49.732Z,52.33
2019-05-02T15:17:18.769Z,48.47
2019-05-02T15:19:48.987Z,49.43
2019-05-02T15:22:19.643Z,45.10
2019-05-02T15:24:49.995Z,47.70
2019-05-02T15:27:22.231Z,47.70
2019-05-02T15:30:00.797Z,42.53
2019-05-02T15:32:46.473Z,43.50
2019-05-02T15:35:27.527Z,39.97
2019-05-02T15:38:02.483Z,42.60
2019-05-02T15:43:08.994Z,35.07
2019-05-02T15:45:36.868Z,34.70
2019-05-02T15:48:06.297Z,34.60
2019-05-02T15:50:43.590Z,34.30
2019-05-02T15:53:14.439Z,33.27
2019-05-02T15:55:44.626Z,32.53
2019-05-02T15:58:25.623Z,30.93
2019-05-02T16:01:01.931Z,35.27
2019-05-02T16:03:46.284Z,35.87
2019-05-02T16:06:16.559Z,32.93
2019-05-02T16:08:47.843Z,32.93
2019-05-02T16:11:18.950Z,29.13
2019-05-02T16:13:55.494Z,32.77
2019-05-02T16:16:23.476Z,27.63
2019-05-02T16:18:53.852Z,25.43
2019-05-02T16:21:32.440Z,30.10
2019-05-02T16:24:22.981Z,28.93
2019-05-02T16:26:56.916Z,29.07
2019-05-02T16:29:28.698Z,31.20
2019-05-02T16:32:16.341Z,27.37
2019-05-02T16:34:54.805Z,27.83
2019-05-02T16:37:26.037Z,24.47
2019-05-02T16:39:56.820Z,25.33
2019-05-02T16:42:27.030Z,23.57
2019-05-02T16:44:57.634Z,18.97
2019-05-02T16:47:28.005Z,20.13
2019-05-02T16:49:58.299Z,20.40
2019-05-02T16:52:28.957Z,21.97
2019-05-02T16:55:02.730Z,17.13
2019-05-02T16:57:35.181Z,17.73
2019-05-02T17:00:07.297Z,18.83
2019-05-02T17:02:42.657Z,19.23
2019-05-02T17:05:12.065Z,19.40
2019-05-02T17:07:52.763Z,18.53
2019-05-02T17:10:36.354Z,14.63
2019-05-02T17:13:06.612Z,12.93
2019-05-02T17:15:37.542Z,11.07
2019-05-02T17:18:18.142Z,12.27
2019-05-02T17:20:39.951Z,11.47
2019-05-02T17:23:10.311Z,11.87
2019-05-02T17:25:41.648Z,10.70
2019-05-02T17:28:13.253Z,9.47
2019-05-02T17:30:44.182Z,15.27
2019-05-02T17:33:16.240Z,11.30
2019-05-02T17:35:51.548Z,9.77
2019-05-02T17:38:23.745Z,16.97
2019-05-02T17:40:54.143Z,10.57
2019-05-02T17:43:23.208Z,8.47
2019-05-02T17:45:53.855Z,7.23
2019-05-02T17:48:25.164Z,7.53
2019-05-02T17:51:22.766Z,9.20
2019-05-02T17:53:53.126Z,12.10
2019-05-02T17:56:25.121Z,16.07
2019-05-02T17:58:58.258Z,16.00
2019-05-02T18:01:35.274Z,14.20
2019-05-02T18:04:06.745Z,16.80
2019-05-02T18:06:37.772Z,19.93
2019-05-02T18:09:09.071Z,19.23
2019-05-02T18:11:39.784Z,18.10
2019-05-02T18:14:16.152Z,18.80
2019-05-02T18:16:47.032Z,20.87
2019-05-02T18:19:16.112Z,18.10
2019-05-02T18:21:47.568Z,20.60
2019-05-02T18:24:17.932Z,21.03
2019-05-02T18:26:48.466Z,22.10
2019-05-02T18:29:19.097Z,20.97
2019-05-02T18:31:49.317Z,23.90
2019-05-02T18:34:25.016Z,28.00
2019-05-02T18:36:57.304Z,24.67
2019-05-02T18:39:24.724Z,24.33
2019-05-02T18:41:55.114Z,21.43
2019-05-02T18:44:25.515Z,22.70
2019-05-02T18:46:57.769Z,16.90
2019-05-02T18:49:27.768Z,18.70
2019-05-02T18:51:58.018Z,14.97
2019-05-02T18:54:28.293Z,16.40
2019-05-02T18:57:02.391Z,16.90
2019-05-02T18:59:33.230Z,14.80
2019-05-02T19:02:03.817Z,17.43
2019-05-02T19:04:38.150Z,15.00
2019-05-02T19:07:07.530Z,14.50
2019-05-02T19:09:48.413Z,15.47
2019-05-02T19:12:19.461Z,13.63
2019-05-02T19:14:42.111Z,16.03
2019-05-02T19:17:12.485Z,16.50
2019-05-02T19:19:42.811Z,23.80
2019-05-02T19:22:17.076Z,22.13
2019-05-02T19:24:45.486Z,24.97
2019-05-02T19:27:21.186Z,17.90
2019-05-02T19:29:54.690Z,21.77
2019-05-02T19:32:28.302Z,25.33
2019-05-02T19:34:57.749Z,25.73
2019-05-02T19:37:31.498Z,21.07
2019-05-02T19:40:01.566Z,18.67
2019-05-02T19:42:32.673Z,15.07
2019-05-02T19:45:11.233Z,16.40
2019-05-02T19:47:35.002Z,15.40
2019-05-02T19:50:07.230Z,16.10
2019-05-02T19:52:40.493Z,13.00
2019-05-02T19:55:14.184Z,12.57
2019-05-02T19:57:43.155Z,14.97
2019-05-02T20:00:13.127Z,13.73
2019-05-02T20:02:43.818Z,11.80
2019-05-02T20:05:16.536Z,14.60
2019-05-02T20:07:46.476Z,13.07
2019-05-02T20:10:18.153Z,11.37
2019-05-02T20:12:50.892Z,14.23
2019-05-02T20:15:26.819Z,13.30
2019-05-02T20:18:00.373Z,14.93
2019-05-02T20:20:47.589Z,13.93
2019-05-02T20:23:18.667Z,13.50
2019-05-02T20:25:52.095Z,15.53
2019-05-02T20:28:21.936Z,13.53
2019-05-02T20:30:52.757Z,17.13
2019-05-02T20:33:23.081Z,16.93
2019-05-02T20:35:53.320Z,15.73
2019-05-02T20:38:23.575Z,16.60
2019-05-02T20:40:54.762Z,15.93
2019-05-02T20:43:29.063Z,13.70
2019-05-02T20:45:59.088Z,12.13
2019-05-02T20:48:29.374Z,15.30
2019-05-02T20:50:59.703Z,15.43
2019-05-02T20:53:31.866Z,13.97
2019-05-02T20:56:02.597Z,16.10
2019-05-02T20:58:32.925Z,13.23
2019-05-02T21:01:08.542Z,13.10
2019-05-02T21:03:36.013Z,13.70
2019-05-02T21:06:36.484Z,14.97
2019-05-02T21:09:19.118Z,17.37
2019-05-02T21:11:53.479Z,13.83
2019-05-02T21:14:23.802Z,15.53
2019-05-02T21:16:54.524Z,14.17
2019-05-02T21:19:24.761Z,15.53
2019-05-02T21:21:56.691Z,16.40
2019-05-02T21:24:26.997Z,17.47
2019-05-02T21:26:57.995Z,13.40
2019-05-02T21:29:28.204Z,13.83
2019-05-02T21:31:58.799Z,14.70
2019-05-02T21:34:29.211Z,15.90
2019-05-02T21:36:59.479Z,15.43
2019-05-02T21:39:31.766Z,14.17
2019-05-02T21:42:02.331Z,15.40
2019-05-02T21:44:33.962Z,15.67
2019-05-02T21:47:05.853Z,15.43
2019-05-02T21:49:54.142Z,14.87
2019-05-02T21:52:31.902Z,15.93
2019-05-02T21:55:12.270Z,15.97
2019-05-02T21:57:42.472Z,14.03
2019-05-02T22:00:19.505Z,11.93
2019-05-02T22:02:52.348Z,13.13
2019-05-02T22:05:22.797Z,10.87
2019-05-02T22:07:53.138Z,11.20
2019-05-02T22:10:23.462Z,10.87
2019-05-02T22:12:54.076Z,11.50
2019-05-02T22:15:24.735Z,13.17
2019-05-02T22:17:55.062Z,11.90
2019-05-02T22:20:25.680Z,11.50
2019-05-02T22:22:56.030Z,11.73
2019-05-02T22:25:26.356Z,12.07
2019-05-02T22:27:56.902Z,12.47
2019-05-02T22:30:27.212Z,13.63
2019-05-02T22:32:57.924Z,11.13
2019-05-02T22:35:28.170Z,10.80
2019-05-02T22:38:02.874Z,9.23
2019-05-02T22:40:33.550Z,11.40
2019-05-02T22:43:04.580Z,12.03
2019-05-02T22:45:35.027Z,10.50
2019-05-02T22:48:05.420Z,10.27
2019-05-02T22:50:35.724Z,10.67
2019-05-02T22:53:06.472Z,13.47
2019-05-02T22:55:37.547Z,10.20
2019-05-02T22:58:07.860Z,12.43
2019-05-02T23:00:38.204Z,16.47
2019-05-02T23:03:08.502Z,10.30
2019-05-02T23:05:38.799Z,13.77
2019-05-02T23:08:09.134Z,10.13
2019-05-02T23:10:41.569Z,11.77
2019-05-02T23:13:12.991Z,9.10
2019-05-02T23:15:43.394Z,11.73
2019-05-02T23:18:14.658Z,10.83
2019-05-02T23:20:44.980Z,9.13
2019-05-02T23:23:15.280Z,12.33
2019-05-02T23:25:59.686Z,12.80
2019-05-02T23:28:31.810Z,11.87
2019-05-02T23:31:02.876Z,11.33
2019-05-02T23:33:51.609Z,8.63
2019-05-02T23:36:22.030Z,9.30
2019-05-02T23:38:52.595Z,11.97
2019-05-02T23:41:22.853Z,10.00
2019-05-02T23:43:53.278Z,8.23
2019-05-02T23:46:24.556Z,9.73
2019-05-02T23:48:54.900Z,7.40
2019-05-02T23:51:26.271Z,8.00
2019-05-02T23:53:56.647Z,10.13
2019-05-02T23:56:26.962Z,8.03
2019-05-02T23:58:57.327Z,11.00
